Аэропорт: Елизово. Петропавловск-Камчатский

ICAO: UHPP

METAR:
2021-01-24 17:00:00
UHPP 241700Z 36003MPS 9999 NSC M16/M20 Q1007 R34L/CLRD70 NOSIG RMK QFE752/1003
METAR:
2021-01-24 13:38:00
TAF UHPP 241338Z 2415/2521 35003G12MPS 9999 SCT040 TXM10/2503Z TNM20/2417Z